Time;durP1;ratioP1;P1;durP2;ratioP2;P2;SDS_P1;SDS_P2;PMS_P1;PMS_P2;Temp;Humidity;BMP_temperature;BMP_pressure;BME280_temperature;BME280_humidity;BME280_pressure;Samples;Min_cycle;Max_cycle;Signal;HPM_P1;HPM_P2
2022/06/13 00:04:31;;;;;;;;;;;;;;;16.01;53.54102;102099.4;;;;-80
2022/06/13 00:09:28;;;;;;;;;;;;;;;16.01;53.5957;102091.9;;;;-82
2022/06/13 00:14:28;;;;;;;;;;;;;;;15.97;53.64941;102088.8;;;;-83
2022/06/13 00:19:28;;;;;;;;;;;;;;;15.95;53.73633;102084.4;;;;-81
2022/06/13 00:21:33;;;;;;;7.4;2.7;;;;;;;;;;;;;-83
2022/06/13 00:24:40;;;;;;;;;;;;;;;15.9;53.45996;102074.6;;;;-83
2022/06/13 00:29:29;;;;;;;;;;;;;;;15.87;53.78223;102070.3;;;;-83
2022/06/13 00:34:29;;;;;;;;;;;;;;;15.81;53.5957;102072.5;;;;-85
2022/06/13 00:39:29;;;;;;;;;;;;;;;15.75;53.72266;102073.9;;;;-81
2022/06/13 00:44:35;;;;;;;;;;;;;;;15.71;53.83105;102075.6;;;;-81
2022/06/13 00:49:31;;;;;;;;;;;;;;;15.68;54.00781;102071.8;;;;-85
2022/06/13 00:51:33;;;;;;;7.5;3.1;;;;;;;;;;;;;-83
2022/06/13 00:54:31;;;;;;;;;;;;;;;15.67;54.1084;102080.5;;;;-82
2022/06/13 00:59:30;;;;;;;;;;;;;;;15.65;54.17383;102079;;;;-83
2022/06/13 01:04:32;;;;;;;;;;;;;;;15.64;54.09375;102076.7;;;;-81
2022/06/13 01:14:47;;;;;;;;;;;;;;;15.63;54.02441;102067.9;;;;-82
2022/06/13 01:19:40;;;;;;;;;;;;;;;15.63;54.04688;102063.7;;;;-82
2022/06/13 01:21:41;;;;;;;7.2;2.7;;;;;;;;;;;;;-83
2022/06/13 01:24:42;;;;;;;;;;;;;;;15.62;53.89844;102068.4;;;;-84
2022/06/13 01:29:38;;;;;;;;;;;;;;;15.56;54.20801;102070.9;;;;-82
2022/06/13 01:34:36;;;;;;;;;;;;;;;15.54;54.16016;102068.3;;;;-83
2022/06/13 01:39:37;;;;;;;;;;;;;;;15.52;54.06641;102068.4;;;;-84
2022/06/13 01:44:38;;;;;;;;;;;;;;;15.51;54.32617;102070.9;;;;-81
2022/06/13 01:49:32;;;;;;;;;;;;;;;15.49;54.21094;102075;;;;-83
2022/06/13 01:51:39;;;;;;;7.5;2.7;;;;;;;;;;;;;-83
2022/06/13 01:54:32;;;;;;;;;;;;;;;15.49;54.32227;102077.5;;;;-81
2022/06/13 01:59:31;;;;;;;;;;;;;;;15.47;54.21875;102076.1;;;;-81
2022/06/13 02:04:32;;;;;;;;;;;;;;;15.47;54.39941;102078.7;;;;-80
2022/06/13 02:09:31;;;;;;;;;;;;;;;15.45;54.39844;102073.1;;;;-83
2022/06/13 02:14:33;;;;;;;;;;;;;;;15.43;54.40625;102076.1;;;;-81
2022/06/13 02:19:34;;;;;;;;;;;;;;;15.43;54.48438;102078.7;;;;-82
2022/06/13 02:21:41;;;;;;;7.6;2.8;;;;;;;;;;;;;-83
2022/06/13 02:24:38;;;;;;;;;;;;;;;15.4;54.57129;102077.3;;;;-81
2022/06/13 02:29:36;;;;;;;;;;;;;;;15.4;54.46875;102078.9;;;;-82
2022/06/13 02:34:33;;;;;;;;;;;;;;;15.38;54.79492;102081.7;;;;-80
2022/06/13 02:39:33;;;;;;;;;;;;;;;15.34;54.75586;102076.6;;;;-82
2022/06/13 02:44:31;;;;;;;;;;;;;;;15.32;54.65039;102080.4;;;;-82
2022/06/13 02:49:37;;;;;;;;;;;;;;;15.27;54.73633;102084.3;;;;-83
2022/06/13 02:51:51;;;;;;;6.2;2.2;;;;;;;;;;;;;-83
2022/06/13 02:54:29;;;;;;;;;;;;;;;15.24;54.68652;102087;;;;-83
2022/06/13 02:59:35;;;;;;;;;;;;;;;15.21;54.62695;102090.3;;;;-83
2022/06/13 03:04:34;;;;;;;;;;;;;;;15.17;54.42969;102090.5;;;;-82
2022/06/13 03:09:33;;;;;;;;;;;;;;;15.12;54.52539;102089.6;;;;-81
2022/06/13 03:14:39;;;;;;;;;;;;;;;15.09;54.83789;102085.7;;;;-82
2022/06/13 03:19:31;;;;;;;;;;;;;;;15.06;54.56348;102088.8;;;;-83
2022/06/13 03:21:45;;;;;;;6.9;2.1;;;;;;;;;;;;;-83
2022/06/13 03:24:31;;;;;;;;;;;;;;;15.01;54.50098;102097.7;;;;-82
2022/06/13 03:29:34;;;;;;;;;;;;;;;14.98;54.3623;102100.8;;;;-81
2022/06/13 03:34:39;;;;;;;;;;;;;;;14.95;54.32227;102104;;;;-81
2022/06/13 03:39:35;;;;;;;;;;;;;;;14.89;54.31738;102108.5;;;;-81
2022/06/13 03:44:37;;;;;;;;;;;;;;;14.87;54.22461;102110.2;;;;-82
2022/06/13 03:49:32;;;;;;;;;;;;;;;14.85;54.31152;102119.4;;;;-82
2022/06/13 03:51:45;;;;;;;5.9;1.8;;;;;;;;;;;;;-83
2022/06/13 03:59:40;;;;;;;;;;;;;;;14.82;54.14941;102120.2;;;;-83
2022/06/13 04:04:35;;;;;;;;;;;;;;;14.81;53.98047;102119;;;;-81
2022/06/13 04:09:32;;;;;;;;;;;;;;;14.79;54.06836;102123.2;;;;-84
2022/06/13 04:14:40;;;;;;;;;;;;;;;14.8;54.03418;102125.2;;;;-83
2022/06/13 04:19:48;;;;;;;;;;;;;;;14.8;54.15918;102123.6;;;;-83
2022/06/13 04:21:51;;;;;;;4.6;1.5;;;;;;;;;;;;;-83
2022/06/13 04:24:32;;;;;;;;;;;;;;;14.83;54.06152;102121.5;;;;-83
2022/06/13 04:29:32;;;;;;;;;;;;;;;14.86;53.95215;102119.8;;;;-80
2022/06/13 04:34:31;;;;;;;;;;;;;;;14.88;54.22461;102119.9;;;;-82
2022/06/13 04:39:35;;;;;;;;;;;;;;;14.92;54.00488;102122.3;;;;-81
2022/06/13 04:44:35;;;;;;;;;;;;;;;14.97;53.99902;102125.7;;;;-82
2022/06/13 04:49:33;;;;;;;;;;;;;;;15.01;54.42188;102131.2;;;;-84
2022/06/13 04:51:47;;;;;;;5.4;1.3;;;;;;;;;;;;;-83
2022/06/13 04:54:35;;;;;;;;;;;;;;;15.04;54.57129;102133.8;;;;-83
2022/06/13 04:59:31;;;;;;;;;;;;;;;15.08;54.68848;102140.4;;;;-83
2022/06/13 05:04:31;;;;;;;;;;;;;;;15.11;54.62598;102139.9;;;;-83
2022/06/13 05:09:33;;;;;;;;;;;;;;;15.16;54.69922;102141.6;;;;-83
2022/06/13 05:14:33;;;;;;;;;;;;;;;15.22;54.83008;102141;;;;-83
2022/06/13 05:19:47;;;;;;;;;;;;;;;15.29;55.08691;102146.2;;;;-82
2022/06/13 05:21:55;;;;;;;5.1;1.2;;;;;;;;;;;;;-84
2022/06/13 05:24:50;;;;;;;;;;;;;;;15.39;54.99805;102152.6;;;;-83
2022/06/13 05:29:33;;;;;;;;;;;;;;;15.48;54.96387;102160.8;;;;-83
2022/06/13 05:34:40;;;;;;;;;;;;;;;15.55;55.08594;102164.8;;;;-82
2022/06/13 05:39:44;;;;;;;;;;;;;;;15.6;55.39648;102171.6;;;;-83
2022/06/13 05:44:32;;;;;;;;;;;;;;;15.62;55.80566;102176.6;;;;-84
2022/06/13 05:54:40;;;;;;;;;;;;;;;15.94;56.21777;102182.1;;;;-82
2022/06/13 05:59:47;;;;;;;;;;;;;;;16.03;56.11816;102193;;;;-84
2022/06/13 06:04:38;;;;;;;;;;;;;;;16.1;55.88867;102198;;;;-85
2022/06/13 06:09:37;;;;;;;;;;;;;;;16.46;55.58398;102198.5;;;;-83
2022/06/13 06:14:28;;;;;;;;;;;;;;;16.97;54.40332;102200.2;;;;-83
2022/06/13 06:19:52;;;;;;;;;;;;;;;17.61;52.95117;102207.8;;;;-83
2022/06/13 06:24:28;;;;;;;;;;;;;;;18.18;51.54395;102210.2;;;;-82
2022/06/13 06:29:29;;;;;;;;;;;;;;;18.75;50.37109;102208.5;;;;-85
2022/06/13 06:34:32;;;;;;;;;;;;;;;19.17;49.39355;102221.1;;;;-85
2022/06/13 06:39:34;;;;;;;;;;;;;;;19.3;48.78125;102229.1;;;;-82
2022/06/13 06:44:28;;;;;;;;;;;;;;;19.53;48.40723;102227.2;;;;-82
2022/06/13 06:49:38;;;;;;;;;;;;;;;19.85;47.83789;102228.4;;;;-83
2022/06/13 06:51:59;;;;;;;3.7;0.8;;;;;;;;;;;;;-84
2022/06/13 07:04:40;;;;;;;;;;;;;;;19.71;47.51465;102241.9;;;;-83
2022/06/13 07:09:29;;;;;;;;;;;;;;;20.03;47.02344;102249.8;;;;-80
2022/06/13 07:14:32;;;;;;;;;;;;;;;20.56;45.99316;102247.2;;;;-82
2022/06/13 07:19:29;;;;;;;;;;;;;;;21;45.00879;102246.2;;;;-82
2022/06/13 07:21:57;;;;;;;4.2;0.8;;;;;;;;;;;;;-84
2022/06/13 07:24:35;;;;;;;;;;;;;;;21.44;44.2041;102253.5;;;;-84
2022/06/13 07:29:28;;;;;;;;;;;;;;;21.5;43.46582;102269.8;;;;-82
2022/06/13 07:34:30;;;;;;;;;;;;;;;21.57;43.56348;102268;;;;-83
2022/06/13 07:39:32;;;;;;;;;;;;;;;21.79;42.9082;102274.5;;;;-83
2022/06/13 07:44:33;;;;;;;;;;;;;;;22.1;42.375;102274.8;;;;-82
2022/06/13 07:49:31;;;;;;;;;;;;;;;22.31;41.90137;102283.1;;;;-84
2022/06/13 07:51:59;;;;;;;3.7;0.9;;;;;;;;;;;;;-83
2022/06/13 07:54:31;;;;;;;;;;;;;;;22.51;41.55176;102288.2;;;;-82
2022/06/13 07:59:31;;;;;;;;;;;;;;;22.61;41.46875;102297.3;;;;-84
2022/06/13 08:04:28;;;;;;;;;;;;;;;22.7;41.13184;102302.9;;;;-85
2022/06/13 08:09:30;;;;;;;;;;;;;;;22.71;40.77637;102302.6;;;;-83
2022/06/13 08:14:29;;;;;;;;;;;;;;;22.81;40.50781;102318.5;;;;-83
2022/06/13 08:19:34;;;;;;;;;;;;;;;22.92;40.47168;102321.9;;;;-84
2022/06/13 08:22:14;;;;;;;3.5;0.9;;;;;;;;;;;;;-81
2022/06/13 08:24:36;;;;;;;;;;;;;;;22.96;39.98145;102321.8;;;;-82
2022/06/13 08:29:44;;;;;;;;;;;;;;;23.01;39.93945;102327.7;;;;-84
2022/06/13 08:34:31;;;;;;;;;;;;;;;23.19;39.75879;102334.2;;;;-82
2022/06/13 08:39:39;;;;;;;;;;;;;;;23.36;39.49805;102327.3;;;;-83
2022/06/13 08:44:40;;;;;;;;;;;;;;;23.62;39.34766;102341.8;;;;-82
2022/06/13 08:49:32;;;;;;;;;;;;;;;23.9;38.64453;102345.3;;;;-83
2022/06/13 08:52:10;;;;;;;4.2;1;;;;;;;;;;;;;-84
2022/06/13 08:54:35;;;;;;;;;;;;;;;23.91;38.42676;102344.8;;;;-84
2022/06/13 08:59:34;;;;;;;;;;;;;;;23.94;38.34766;102349.3;;;;-84
2022/06/13 09:04:42;;;;;;;;;;;;;;;24.03;38.25195;102355.1;;;;-82
2022/06/13 09:09:42;;;;;;;;;;;;;;;23.94;38.11621;102351.8;;;;-81
2022/06/13 09:14:36;;;;;;;;;;;;;;;24.07;38.05859;102370.1;;;;-80
2022/06/13 09:19:31;;;;;;;;;;;;;;;24.2;37.97754;102372.8;;;;-81
2022/06/13 09:22:11;;;;;;;3.8;1;;;;;;;;;;;;;-83
2022/06/13 09:24:39;;;;;;;;;;;;;;;24.28;37.62598;102374.4;;;;-83
2022/06/13 09:29:40;;;;;;;;;;;;;;;24.27;37.60156;102377.1;;;;-81
2022/06/13 09:34:46;;;;;;;;;;;;;;;24.42;37.83496;102377.6;;;;-80
2022/06/13 09:39:29;;;;;;;;;;;;;;;24.7;37.62695;102379.4;;;;-82
2022/06/13 09:44:42;;;;;;;;;;;;;;;25.13;37.31543;102387.2;;;;-81
2022/06/13 09:49:36;;;;;;;;;;;;;;;25.53;36.82617;102393.4;;;;-83
2022/06/13 09:54:40;;;;;;;;;;;;;;;25.89;36.29883;102391.8;;;;-81
2022/06/13 09:59:41;;;;;;;;;;;;;;;26.21;35.42969;102402.8;;;;-82
2022/06/13 10:04:32;;;;;;;;;;;;;;;26.53;35.11816;102407.3;;;;-83
2022/06/13 10:09:38;;;;;;;;;;;;;;;26.75;34.72754;102398.5;;;;-83
2022/06/13 10:14:55;;;;;;;;;;;;;;;26.91;34.6582;102399.7;;;;-82
2022/06/13 10:19:34;;;;;;;;;;;;;;;27.04;34.34375;102410.2;;;;-82
2022/06/13 10:22:24;;;;;;;4.5;0.9;;;;;;;;;;;;;-82
2022/06/13 10:24:39;;;;;;;;;;;;;;;27.04;34.35449;102410.7;;;;-81
2022/06/13 10:29:39;;;;;;;;;;;;;;;26.99;34.11816;102405.2;;;;-81
2022/06/13 10:34:51;;;;;;;;;;;;;;;26.86;34.09668;102422;;;;-83
2022/06/13 10:39:29;;;;;;;;;;;;;;;26.84;34.32715;102418.6;;;;-80
2022/06/13 10:44:31;;;;;;;;;;;;;;;26.86;34.25879;102417;;;;-82
2022/06/13 10:47:17;;;;;;;;;;;;;;;27.08;34.08984;102428.2;;;;-80
2022/06/13 10:52:28;;;;;;;4.9;1;;;;;;;;;;;;;-81
2022/06/13 10:56:25;;;;;;;;;;;;;;;26.78;34.53223;102429.4;;;;-85
2022/06/13 11:01:27;;;;;;;;;;;;;;;26.8;34.66211;102432.1;;;;-85
2022/06/13 11:06:29;;;;;;;;;;;;;;;26.97;34.4541;102428.1;;;;-86
2022/06/13 11:11:17;;;;;;;;;;;;;;;27.16;34.18848;102428.7;;;;-84
2022/06/13 11:22:45;;;;;;;3.9;1;;;;;;;;;;;;;-84
2022/06/13 11:31:21;;;;;;;;;;;;;;;27.8;33.23438;102446.3;;;;-86
2022/06/13 11:36:26;;;;;;;;;;;;;;;27.81;33.11816;102451.6;;;;-84
2022/06/13 11:41:18;;;;;;;;;;;;;;;27.71;33.75293;102457.3;;;;-83
2022/06/13 11:46:22;;;;;;;;;;;;;;;27.82;34.16895;102451.5;;;;-85
2022/06/13 11:51:20;;;;;;;;;;;;;;;28.07;32.99707;102449.9;;;;-83
2022/06/13 11:56:18;;;;;;;;;;;;;;;28.3;33.04883;102444.4;;;;-85
2022/06/13 12:01:15;;;;;;;;;;;;;;;28.5;33.28613;102454.6;;;;-85
2022/06/13 12:06:18;;;;;;;;;;;;;;;28.7;33.3125;102458.5;;;;-83
2022/06/13 12:11:25;;;;;;;;;;;;;;;28.78;32.72168;102458.7;;;;-84
2022/06/13 12:16:24;;;;;;;;;;;;;;;28.78;33.16602;102453;;;;-85
2022/06/13 12:21:24;;;;;;;;;;;;;;;28.82;33.46094;102455;;;;-84
2022/06/13 12:22:42;;;;;;;4;0.9;;;;;;;;;;;;;-85
2022/06/13 12:26:17;;;;;;;;;;;;;;;28.9;32.96387;102454.5;;;;-84
2022/06/13 12:36:28;;;;;;;;;;;;;;;28.97;32.89941;102463.5;;;;-85
2022/06/13 12:41:18;;;;;;;;;;;;;;;28.94;32.47559;102467.6;;;;-84
2022/06/13 12:46:36;;;;;;;;;;;;;;;28.88;33.25488;102469.1;;;;-83
2022/06/13 12:51:37;;;;;;;;;;;;;;;28.96;33.42578;102468.1;;;;-85
2022/06/13 12:52:42;;;;;;;6.4;1.2;;;;;;;;;;;;;-85
2022/06/13 12:56:21;;;;;;;;;;;;;;;29.2;32.96289;102468.8;;;;-84
2022/06/13 13:01:18;;;;;;;;;;;;;;;29.27;32.54688;102475.4;;;;-85
2022/06/13 13:06:18;;;;;;;;;;;;;;;29.2;32.24805;102470.7;;;;-84
2022/06/13 13:11:20;;;;;;;;;;;;;;;29.06;32.46094;102471.4;;;;-84
2022/06/13 13:16:19;;;;;;;;;;;;;;;29.01;32.84375;102469.9;;;;-82
2022/06/13 13:21:15;;;;;;;;;;;;;;;29.03;31.94434;102470.9;;;;-83
2022/06/13 13:22:48;;;;;;;4.8;1;;;;;;;;;;;;;-83
2022/06/13 13:26:21;;;;;;;;;;;;;;;28.91;31.70215;102467;;;;-82
2022/06/13 13:31:17;;;;;;;;;;;;;;;28.84;31.73145;102471.5;;;;-83
2022/06/13 13:36:17;;;;;;;;;;;;;;;28.74;31.86523;102478.1;;;;-84
2022/06/13 13:41:14;;;;;;;;;;;;;;;28.71;32.27246;102486.8;;;;-84
2022/06/13 13:46:52;;;;;;;;;;;;;;;28.8;31.97461;102486;;;;-86
2022/06/13 13:51:34;;;;;;;;;;;;;;;28.83;32.22266;102494.5;;;;-85
2022/06/13 13:52:50;;;;;;;6.2;1.4;;;;;;;;;;;;;-84
2022/06/13 13:56:20;;;;;;;;;;;;;;;28.83;32.03516;102496.8;;;;-85
2022/06/13 14:01:27;;;;;;;;;;;;;;;28.73;32.46094;102488;;;;-83
2022/06/13 14:11:17;;;;;;;;;;;;;;;28.67;32.81836;102485;;;;-84
2022/06/13 14:16:17;;;;;;;;;;;;;;;28.74;32.89453;102483.3;;;;-84
2022/06/13 14:22:59;;;;;;;5.4;1.3;;;;;;;;;;;;;-82
2022/06/13 14:26:22;;;;;;;;;;;;;;;28.97;32.05664;102484.1;;;;-85
2022/06/13 14:31:17;;;;;;;;;;;;;;;28.86;32.36426;102488.3;;;;-84
2022/06/13 14:36:30;;;;;;;;;;;;;;;28.78;32.18359;102487.5;;;;-85
2022/06/13 14:41:21;;;;;;;;;;;;;;;28.67;32.03516;102483.4;;;;-84
2022/06/13 14:46:22;;;;;;;;;;;;;;;28.59;32.62598;102483.4;;;;-82
2022/06/13 14:51:31;;;;;;;;;;;;;;;28.62;32.55859;102489.9;;;;-85
2022/06/13 14:56:23;;;;;;;;;;;;;;;28.69;32.02539;102485.6;;;;-84
2022/06/13 15:01:30;;;;;;;;;;;;;;;28.68;31.94238;102489.2;;;;-83
2022/06/13 15:06:14;;;;;;;;;;;;;;;28.46;32.87402;102485.7;;;;-84
2022/06/13 15:11:25;;;;;;;;;;;;;;;28.39;32.54199;102491.5;;;;-86
2022/06/13 15:16:15;;;;;;;;;;;;;;;28.31;32.66406;102494.4;;;;-84
2022/06/13 15:21:23;;;;;;;;;;;;;;;28.22;32.43555;102493.4;;;;-85
2022/06/13 15:23:13;;;;;;;6.4;1.4;;;;;;;;;;;;;-84
2022/06/13 15:26:22;;;;;;;;;;;;;;;28.11;32.47461;102489.2;;;;-86
2022/06/13 15:31:12;;;;;;;;;;;;;;;28.03;32.87793;102478.2;;;;-84
2022/06/13 15:36:29;;;;;;;;;;;;;;;27.94;33.13965;102484.6;;;;-86
2022/06/13 15:41:15;;;;;;;;;;;;;;;27.92;32.93945;102479.5;;;;-85
2022/06/13 15:46:11;;;;;;;;;;;;;;;27.88;32.81934;102477.6;;;;-84
2022/06/13 15:51:27;;;;;;;;;;;;;;;27.77;32.9873;102475.1;;;;-86
2022/06/13 15:53:01;;;;;;;4.8;1.2;;;;;;;;;;;;;-77
2022/06/13 15:56:24;;;;;;;;;;;;;;;27.69;32.79492;102480.9;;;;-79
2022/06/13 16:01:13;;;;;;;;;;;;;;;27.59;33.16113;102479.8;;;;-76
2022/06/13 16:06:15;;;;;;;;;;;;;;;27.5;33.42188;102482.7;;;;-77
2022/06/13 16:11:11;;;;;;;;;;;;;;;27.4;33.42676;102486;;;;-76
2022/06/13 16:16:13;;;;;;;;;;;;;;;27.3;33.99023;102485;;;;-79
2022/06/13 16:21:12;;;;;;;;;;;;;;;27.19;33.59766;102487.1;;;;-77
2022/06/13 16:23:07;;;;;;;3.7;1.1;;;;;;;;;;;;;-78
2022/06/13 16:26:11;;;;;;;;;;;;;;;27.03;33.85352;102480.1;;;;-77
2022/06/13 16:31:13;;;;;;;;;;;;;;;26.84;33.6416;102478.7;;;;-77
2022/06/13 16:36:18;;;;;;;;;;;;;;;26.56;34.23633;102480.2;;;;-77
2022/06/13 16:41:21;;;;;;;;;;;;;;;26.23;34.3623;102485.2;;;;-76
2022/06/13 16:46:12;;;;;;;;;;;;;;;25.97;34.64453;102481.8;;;;-77
2022/06/13 16:51:13;;;;;;;;;;;;;;;25.81;34.65527;102480.8;;;;-77
2022/06/13 16:53:10;;;;;;;4.7;1;;;;;;;;;;;;;-77
2022/06/13 16:56:11;;;;;;;;;;;;;;;25.67;34.95801;102476.4;;;;-77
2022/06/13 17:01:13;;;;;;;;;;;;;;;25.51;35.49121;102476;;;;-76
2022/06/13 17:06:21;;;;;;;;;;;;;;;25.34;35.53613;102469.8;;;;-75
2022/06/13 17:11:11;;;;;;;;;;;;;;;25.16;35.68359;102473.8;;;;-75
2022/06/13 17:16:13;;;;;;;;;;;;;;;24.97;35.84277;102475.2;;;;-76
2022/06/13 17:21:11;;;;;;;;;;;;;;;24.78;35.81543;102467.8;;;;-76
2022/06/13 17:23:12;;;;;;;4.4;1.3;;;;;;;;;;;;;-77
2022/06/13 19:12:57;;;;;;;;;;;;;;;20.88;37.48926;102476.1;;;;-83
2022/06/13 19:15:53;;;;;;;;;;;;;;;20.43;37.99023;102479.4;;;;-80
2022/06/13 19:20:42;;;;;;;;;;;;;;;20.1;38.2832;102484.5;;;;-83
2022/06/13 19:23:23;;;;;;;3.3;0.9;;;;;;;;;;;;;-83
2022/06/13 19:25:42;;;;;;;;;;;;;;;19.75;38.72168;102482.4;;;;-83
2022/06/13 19:30:40;;;;;;;;;;;;;;;19.42;39.18457;102480.2;;;;-84
2022/06/13 19:35:55;;;;;;;;;;;;;;;19.11;39.69336;102485.5;;;;-83
2022/06/13 19:40:51;;;;;;;;;;;;;;;18.79;40.21289;102497.4;;;;-83
2022/06/13 19:45:58;;;;;;;;;;;;;;;;;;;;;
2022/06/13 19:50:54;;;;;;;;;;;;;;;18.25;41.34961;102508.2;;;;-82
2022/06/13 19:53:28;;;;;;;5.9;1;;;;;;;;;;;;;-83
2022/06/13 19:55:48;;;;;;;;;;;;;;;18;41.94043;102506.4;;;;-83
2022/06/13 20:00:47;;;;;;;;;;;;;;;17.77;42.41895;102516.4;;;;-82
2022/06/13 20:10:40;;;;;;;;;;;;;;;17.33;43.16113;102520.1;;;;-82
2022/06/13 20:15:43;;;;;;;;;;;;;;;17.14;43.65332;102523;;;;-83
2022/06/13 20:20:46;;;;;;;;;;;;;;;16.93;44.00781;102517.5;;;;-84
2022/06/13 20:23:27;;;;;;;5.8;1.4;;;;;;;;;;;;;-80
2022/06/13 20:25:41;;;;;;;;;;;;;;;16.71;44.30371;102524;;;;-82
2022/06/13 20:30:46;;;;;;;;;;;;;;;16.56;44.63965;102521.4;;;;-81
2022/06/13 20:35:44;;;;;;;;;;;;;;;16.41;44.93066;102517.3;;;;-80
2022/06/13 20:40:41;;;;;;;;;;;;;;;16.25;45.09668;102525.5;;;;-83
2022/06/13 20:45:41;;;;;;;;;;;;;;;16.1;45.19238;102524.5;;;;-82
2022/06/13 20:50:46;;;;;;;;;;;;;;;15.95;45.47363;102521.1;;;;-83
2022/06/13 20:53:44;;;;;;;6.5;1.7;;;;;;;;;;;;;-83
2022/06/13 20:56:01;;;;;;;;;;;;;;;16.16;45.90137;102529.9;;;;-82
2022/06/13 20:59:33;;;;;;;;;;;;;;;15.74;46.07324;102531.2;;;;-83
2022/06/13 21:04:19;;;;;;;;;;;;;;;15.62;45.94727;102533;;;;-80
2022/06/13 21:14:18;;;;;;;;;;;;;;;15.39;46.67969;102534.8;;;;-83
2022/06/13 21:19:30;;;;;;;;;;;;;;;15.3;46.59082;102527.4;;;;-83
2022/06/13 21:23:33;;;;;;;5.9;1.4;;;;;;;;;;;;;-83
2022/06/13 21:24:19;;;;;;;;;;;;;;;15.18;47.2334;102526.4;;;;-82
2022/06/13 21:29:20;;;;;;;;;;;;;;;15.08;47.21289;102527.6;;;;-82
2022/06/13 21:34:21;;;;;;;;;;;;;;;14.98;47.07617;102526;;;;-81
2022/06/13 21:39:20;;;;;;;;;;;;;;;14.89;47.58691;102521.9;;;;-83
2022/06/13 21:44:21;;;;;;;;;;;;;;;14.8;47.4873;102529;;;;-82
2022/06/13 21:49:25;;;;;;;;;;;;;;;14.69;47.84766;102533.5;;;;-82
2022/06/13 21:53:34;;;;;;;5.2;1.4;;;;;;;;;;;;;-83
2022/06/13 21:54:20;;;;;;;;;;;;;;;14.61;48.08594;102529.8;;;;-82
2022/06/13 21:59:24;;;;;;;;;;;;;;;14.52;47.95215;102541.3;;;;-81
2022/06/13 22:04:18;;;;;;;;;;;;;;;14.42;48.24609;102541.4;;;;-81
2022/06/13 22:09:18;;;;;;;;;;;;;;;14.35;48.11426;102540.1;;;;-82
2022/06/13 22:14:18;;;;;;;;;;;;;;;14.21;48.40332;102530.3;;;;-82
2022/06/13 22:19:33;;;;;;;;;;;;;;;14.14;48.51953;102526.4;;;;-83
2022/06/13 22:23:35;;;;;;;4.4;1.6;;;;;;;;;;;;;-83
2022/06/13 22:24:18;;;;;;;;;;;;;;;14.03;48.59668;102516.1;;;;-82
2022/06/13 22:29:18;;;;;;;;;;;;;;;13.96;48.77051;102511.5;;;;-84
2022/06/13 22:34:20;;;;;;;;;;;;;;;13.88;48.83887;102514;;;;-83
2022/06/13 22:39:18;;;;;;;;;;;;;;;13.79;48.91992;102514;;;;-82
2022/06/13 22:44:18;;;;;;;;;;;;;;;13.72;49.08008;102518.5;;;;-82
2022/06/13 22:53:38;;;;;;;5.2;1.5;;;;;;;;;;;;;-81
2022/06/13 22:54:18;;;;;;;;;;;;;;;13.55;49.24121;102526.6;;;;-82
2022/06/13 22:59:19;;;;;;;;;;;;;;;13.48;49.18848;102522.3;;;;-82
2022/06/13 23:04:18;;;;;;;;;;;;;;;13.42;49.34961;102516.6;;;;-81
2022/06/13 23:09:24;;;;;;;;;;;;;;;13.36;49.34375;102510.8;;;;-81
2022/06/13 23:14:24;;;;;;;;;;;;;;;13.26;49.37793;102507.4;;;;-83
2022/06/13 23:19:24;;;;;;;;;;;;;;;13.24;49.62207;102500.3;;;;-82
2022/06/13 23:23:43;;;;;;;5.8;1.6;;;;;;;;;;;;;-83
2022/06/13 23:24:18;;;;;;;;;;;;;;;13.17;49.60352;102505.9;;;;-82
2022/06/13 23:29:18;;;;;;;;;;;;;;;13.12;49.6875;102505.4;;;;-82
2022/06/13 23:34:19;;;;;;;;;;;;;;;13.08;49.68262;102508;;;;-82
2022/06/13 23:39:24;;;;;;;;;;;;;;;13.02;49.75391;102501.8;;;;-82
2022/06/13 23:44:20;;;;;;;;;;;;;;;12.95;49.95898;102512.5;;;;-83
2022/06/13 23:49:18;;;;;;;;;;;;;;;12.89;49.94141;102510;;;;-80
2022/06/13 23:53:38;;;;;;;3.9;1.3;;;;;;;;;;;;;-82
2022/06/13 23:54:20;;;;;;;;;;;;;;;12.84;50.04883;102512.3;;;;-82
2022/06/13 23:59:18;;;;;;;;;;;;;;;12.79;50.24414;102507.7;;;;-82
